Port Charlotte, Florida
Current Conditions -  °F | °C
As of 5:53 AM on Thursday 23 Oct 2014 (Local Time) from KPGD Reporting Station
Clear Clear  
Wind Chill: 67°   Ceiling: Unl
Heat Index: 67°   Visibility: 10mi
Dew Point: 62°   Wind: 10mph
Humidity: 84%   Direction: 50°NE
Pressure: 29.94"   Gusts: NA
Location:  26.98°N, 82.1°W
Report Text: KPGD 230953Z AUTO 05009KT 10SM CLR 19/17 A2994 RMK AO2 SLP139 T01940167
Loading
Personal Weather Stations






























Interactive Weather Map
Tropical Storm Tracking
New forecast layout! Learn more

10-Day Weather Forecast

Advertisements
Track Severe Weather on mobile